sensor_id;sensor_type;location;lat;lon;timestamp;pressure;altitude;pressure_sealevel;temperature;humidity
29197;BME280;62796;42.654;23.316;2023-07-02T00:01:09;93943.44;;;21.45;54.83
29197;BME280;62796;42.654;23.316;2023-07-02T00:03:34;93955.81;;;21.49;54.82
29197;BME280;62796;42.654;23.316;2023-07-02T00:05:59;93963.16;;;21.45;55.02
29197;BME280;62796;42.654;23.316;2023-07-02T00:08:25;93948.94;;;21.35;55.20
29197;BME280;62796;42.654;23.316;2023-07-02T00:10:50;93958.00;;;21.19;55.91
29197;BME280;62796;42.654;23.316;2023-07-02T00:13:15;93951.47;;;21.09;56.04
29197;BME280;62796;42.654;23.316;2023-07-02T00:15:41;93943.56;;;21.07;55.93
29197;BME280;62796;42.654;23.316;2023-07-02T00:18:07;93949.03;;;21.13;55.97
29197;BME280;62796;42.654;23.316;2023-07-02T00:20:33;93940.75;;;21.15;56.05
29197;BME280;62796;42.654;23.316;2023-07-02T00:23:06;93932.50;;;21.17;55.85
29197;BME280;62796;42.654;23.316;2023-07-02T00:25:34;93931.78;;;21.01;56.47
29197;BME280;62796;42.654;23.316;2023-07-02T00:27:59;93941.16;;;21.04;56.43
29197;BME280;62796;42.654;23.316;2023-07-02T00:30:24;93953.56;;;21.08;56.27
29197;BME280;62796;42.654;23.316;2023-07-02T00:32:50;93944.31;;;21.15;56.11
29197;BME280;62796;42.654;23.316;2023-07-02T00:35:15;93955.56;;;21.15;56.20
29197;BME280;62796;42.654;23.316;2023-07-02T00:37:41;93954.28;;;21.16;56.15
29197;BME280;62796;42.654;23.316;2023-07-02T00:40:06;93955.41;;;21.13;56.20
29197;BME280;62796;42.654;23.316;2023-07-02T00:42:32;93957.09;;;21.16;56.10
29197;BME280;62796;42.654;23.316;2023-07-02T00:44:57;93955.56;;;21.15;56.00
29197;BME280;62796;42.654;23.316;2023-07-02T00:47:28;93956.53;;;21.10;55.97
29197;BME280;62796;42.654;23.316;2023-07-02T00:49:54;93970.91;;;20.59;56.93
29197;BME280;62796;42.654;23.316;2023-07-02T00:52:20;93965.28;;;20.59;56.95
29197;BME280;62796;42.654;23.316;2023-07-02T00:54:46;93967.50;;;20.68;56.68
29197;BME280;62796;42.654;23.316;2023-07-02T00:57:11;93960.38;;;20.67;56.76
29197;BME280;62796;42.654;23.316;2023-07-02T00:59:37;93957.34;;;20.73;56.80
29197;BME280;62796;42.654;23.316;2023-07-02T01:02:04;93961.13;;;20.75;56.74
29197;BME280;62796;42.654;23.316;2023-07-02T01:04:30;93946.66;;;20.79;56.78
29197;BME280;62796;42.654;23.316;2023-07-02T01:06:56;93948.72;;;20.86;56.64
29197;BME280;62796;42.654;23.316;2023-07-02T01:09:24;93950.97;;;20.87;56.73
29197;BME280;62796;42.654;23.316;2023-07-02T01:11:57;93963.75;;;20.81;57.41
29197;BME280;62796;42.654;23.316;2023-07-02T01:14:41;93968.47;;;20.56;58.29
29197;BME280;62796;42.654;23.316;2023-07-02T01:17:08;93968.84;;;20.52;58.40
29197;BME280;62796;42.654;23.316;2023-07-02T01:19:53;93964.72;;;20.61;58.16
29197;BME280;62796;42.654;23.316;2023-07-02T01:22:25;93961.72;;;20.66;58.20
29197;BME280;62796;42.654;23.316;2023-07-02T01:24:51;93972.94;;;20.74;58.44
29197;BME280;62796;42.654;23.316;2023-07-02T01:27:18;93958.13;;;20.81;58.31
29197;BME280;62796;42.654;23.316;2023-07-02T01:29:44;93948.72;;;20.86;58.02
29197;BME280;62796;42.654;23.316;2023-07-02T01:32:13;93926.38;;;20.88;57.84
29197;BME280;62796;42.654;23.316;2023-07-02T01:34:39;93935.56;;;20.88;57.41
29197;BME280;62796;42.654;23.316;2023-07-02T01:37:05;93940.47;;;20.80;57.58
29197;BME280;62796;42.654;23.316;2023-07-02T01:39:31;93938.22;;;20.79;57.86
29197;BME280;62796;42.654;23.316;2023-07-02T01:44:32;93929.03;;;20.78;58.26
29197;BME280;62796;42.654;23.316;2023-07-02T01:46:58;93922.84;;;20.80;58.63
29197;BME280;62796;42.654;23.316;2023-07-02T01:49:24;93929.22;;;20.80;58.97
29197;BME280;62796;42.654;23.316;2023-07-02T01:51:53;93929.97;;;20.81;59.19
29197;BME280;62796;42.654;23.316;2023-07-02T01:54:20;93921.69;;;20.83;59.34
29197;BME280;62796;42.654;23.316;2023-07-02T01:56:45;93925.50;;;20.63;61.27
29197;BME280;62796;42.654;23.316;2023-07-02T01:59:11;93924.59;;;20.53;62.48
29197;BME280;62796;42.654;23.316;2023-07-02T02:01:37;93912.06;;;20.38;62.74
29197;BME280;62796;42.654;23.316;2023-07-02T02:04:06;93915.59;;;20.47;62.67
29197;BME280;62796;42.654;23.316;2023-07-02T02:06:31;93920.28;;;20.52;62.66
29197;BME280;62796;42.654;23.316;2023-07-02T02:08:56;93921.78;;;20.60;62.80
29197;BME280;62796;42.654;23.316;2023-07-02T02:11:22;93924.00;;;20.62;62.74
29197;BME280;62796;42.654;23.316;2023-07-02T02:13:47;93926.63;;;20.67;63.16
29197;BME280;62796;42.654;23.316;2023-07-02T02:16:14;93924.00;;;20.62;62.96
29197;BME280;62796;42.654;23.316;2023-07-02T02:18:39;93912.56;;;20.60;63.15
29197;BME280;62796;42.654;23.316;2023-07-02T02:21:04;93913.53;;;20.55;63.01
29197;BME280;62796;42.654;23.316;2023-07-02T02:23:30;93909.41;;;20.48;63.11
29197;BME280;62796;42.654;23.316;2023-07-02T02:25:55;93913.91;;;20.43;63.62
29197;BME280;62796;42.654;23.316;2023-07-02T02:28:21;93897.03;;;20.43;63.48
29197;BME280;62796;42.654;23.316;2023-07-02T02:30:46;93900.06;;;20.46;63.25
29197;BME280;62796;42.654;23.316;2023-07-02T02:33:11;93906.03;;;20.50;63.27
29197;BME280;62796;42.654;23.316;2023-07-02T02:35:37;93909.03;;;20.52;63.35
29197;BME280;62796;42.654;23.316;2023-07-02T02:38:03;93899.47;;;20.55;63.15
29197;BME280;62796;42.654;23.316;2023-07-02T02:40:29;93894.44;;;20.46;63.33
29197;BME280;62796;42.654;23.316;2023-07-02T02:42:54;93902.66;;;20.43;63.70
29197;BME280;62796;42.654;23.316;2023-07-02T02:45:20;93898.53;;;20.45;63.65
29197;BME280;62796;42.654;23.316;2023-07-02T02:47:46;93886.75;;;20.38;63.64
29197;BME280;62796;42.654;23.316;2023-07-02T02:50:12;93897.44;;;20.32;63.55
29197;BME280;62796;42.654;23.316;2023-07-02T02:52:38;93899.13;;;20.35;63.18
29197;BME280;62796;42.654;23.316;2023-07-02T02:55:06;93897.44;;;20.32;63.11
29197;BME280;62796;42.654;23.316;2023-07-02T02:57:32;93912.81;;;20.31;62.87
29197;BME280;62796;42.654;23.316;2023-07-02T02:59:59;93921.44;;;20.26;63.17
29197;BME280;62796;42.654;23.316;2023-07-02T03:02:24;93916.91;;;20.23;63.43
29197;BME280;62796;42.654;23.316;2023-07-02T03:04:50;93917.28;;;20.19;64.15
29197;BME280;62796;42.654;23.316;2023-07-02T03:07:16;93915.03;;;19.95;65.16
29197;BME280;62796;42.654;23.316;2023-07-02T03:09:41;93904.94;;;20.00;64.42
29197;BME280;62796;42.654;23.316;2023-07-02T03:12:07;93915.06;;;20.03;64.15
29197;BME280;62796;42.654;23.316;2023-07-02T03:14:32;93914.31;;;20.10;63.86
29197;BME280;62796;42.654;23.316;2023-07-02T03:16:58;93915.81;;;20.18;63.63
29197;BME280;62796;42.654;23.316;2023-07-02T03:19:24;93904.75;;;20.20;63.34
29197;BME280;62796;42.654;23.316;2023-07-02T03:21:49;93916.72;;;20.21;63.27
29197;BME280;62796;42.654;23.316;2023-07-02T03:24:15;93916.94;;;20.30;62.71
29197;BME280;62796;42.654;23.316;2023-07-02T03:26:44;93924.81;;;20.24;63.59
29197;BME280;62796;42.654;23.316;2023-07-02T03:29:10;93923.50;;;20.25;63.80
29197;BME280;62796;42.654;23.316;2023-07-02T03:31:35;93936.81;;;20.32;63.67
29197;BME280;62796;42.654;23.316;2023-07-02T03:34:08;93948.44;;;20.36;63.55
29197;BME280;62796;42.654;23.316;2023-07-02T03:36:34;93940.75;;;20.29;63.75
29197;BME280;62796;42.654;23.316;2023-07-02T03:39:00;93943.34;;;20.20;64.37
29197;BME280;62796;42.654;23.316;2023-07-02T03:41:25;93939.06;;;20.19;65.06
29197;BME280;62796;42.654;23.316;2023-07-02T03:43:51;93943.16;;;19.95;65.36
29197;BME280;62796;42.654;23.316;2023-07-02T03:46:16;93930.44;;;19.94;65.37
29197;BME280;62796;42.654;23.316;2023-07-02T03:48:41;93931.53;;;19.91;65.26
29197;BME280;62796;42.654;23.316;2023-07-02T03:51:07;93926.66;;;19.99;65.21
29197;BME280;62796;42.654;23.316;2023-07-02T03:53:33;93925.72;;;20.04;65.11
29197;BME280;62796;42.654;23.316;2023-07-02T03:55:58;93930.78;;;20.13;64.97
29197;BME280;62796;42.654;23.316;2023-07-02T03:58:23;93919.91;;;20.17;64.82
29197;BME280;62796;42.654;23.316;2023-07-02T04:00:49;93920.69;;;20.25;64.72
29197;BME280;62796;42.654;23.316;2023-07-02T04:03:15;93914.69;;;20.21;64.29
29197;BME280;62796;42.654;23.316;2023-07-02T04:05:41;93930.09;;;20.28;64.30
29197;BME280;62796;42.654;23.316;2023-07-02T04:08:06;93935.31;;;20.31;63.20
29197;BME280;62796;42.654;23.316;2023-07-02T04:10:32;93937.56;;;20.33;63.23
29197;BME280;62796;42.654;23.316;2023-07-02T04:12:57;93930.06;;;20.35;62.87
29197;BME280;62796;42.654;23.316;2023-07-02T04:15:22;93940.94;;;20.39;62.49
29197;BME280;62796;42.654;23.316;2023-07-02T04:17:49;93928.56;;;20.42;62.20
29197;BME280;62796;42.654;23.316;2023-07-02T04:20:15;93936.63;;;20.46;61.60
29197;BME280;62796;42.654;23.316;2023-07-02T04:22:40;93948.97;;;20.50;61.56
29197;BME280;62796;42.654;23.316;2023-07-02T04:25:06;93934.94;;;20.42;61.24
29197;BME280;62796;42.654;23.316;2023-07-02T04:27:32;93955.75;;;20.39;60.78
29197;BME280;62796;42.654;23.316;2023-07-02T04:29:57;93969.03;;;20.47;60.77
29197;BME280;62796;42.654;23.316;2023-07-02T04:32:22;93970.72;;;20.50;61.13
29197;BME280;62796;42.654;23.316;2023-07-02T04:34:48;93979.72;;;20.56;61.68
29197;BME280;62796;42.654;23.316;2023-07-02T04:37:13;93972.78;;;20.57;61.67
29197;BME280;62796;42.654;23.316;2023-07-02T04:39:40;93981.78;;;20.63;61.34
29197;BME280;62796;42.654;23.316;2023-07-02T04:42:06;93988.91;;;20.64;60.96
29197;BME280;62796;42.654;23.316;2023-07-02T04:44:31;93978.78;;;20.61;61.10
29197;BME280;62796;42.654;23.316;2023-07-02T04:47:01;93987.78;;;20.67;61.19
29197;BME280;62796;42.654;23.316;2023-07-02T04:49:27;93990.78;;;20.69;60.99
29197;BME280;62796;42.654;23.316;2023-07-02T04:51:53;93996.41;;;20.69;61.06
29197;BME280;62796;42.654;23.316;2023-07-02T04:54:20;93996.41;;;20.69;60.93
29197;BME280;62796;42.654;23.316;2023-07-02T04:56:46;93999.22;;;20.69;60.45
29197;BME280;62796;42.654;23.316;2023-07-02T04:59:11;94000.53;;;20.68;60.38
29197;BME280;62796;42.654;23.316;2023-07-02T05:01:37;94002.03;;;20.69;60.10
29197;BME280;62796;42.654;23.316;2023-07-02T05:04:02;93996.03;;;20.72;59.52
29197;BME280;62796;42.654;23.316;2023-07-02T05:06:28;94005.03;;;20.78;59.76
29197;BME280;62796;42.654;23.316;2023-07-02T05:08:53;94006.50;;;20.79;59.63
29197;BME280;62796;42.654;23.316;2023-07-02T05:11:18;94005.97;;;20.81;59.11
29197;BME280;62796;42.654;23.316;2023-07-02T05:13:44;94003.88;;;20.89;58.97
29197;BME280;62796;42.654;23.316;2023-07-02T05:16:09;94011.00;;;20.90;59.09
29197;BME280;62796;42.654;23.316;2023-07-02T05:18:35;94017.19;;;20.96;59.30
29197;BME280;62796;42.654;23.316;2023-07-02T05:21:01;94010.59;;;21.01;59.96
29197;BME280;62796;42.654;23.316;2023-07-02T05:23:26;94013.22;;;21.07;60.50
29197;BME280;62796;42.654;23.316;2023-07-02T05:25:52;94015.84;;;21.12;60.40
29197;BME280;62796;42.654;23.316;2023-07-02T05:28:17;94000.47;;;21.13;60.33
29197;BME280;62796;42.654;23.316;2023-07-02T05:30:42;94012.09;;;21.10;61.47
29197;BME280;62796;42.654;23.316;2023-07-02T05:33:08;94006.81;;;21.06;62.18
29197;BME280;62796;42.654;23.316;2023-07-02T05:35:33;94007.06;;;21.08;62.21
29197;BME280;62796;42.654;23.316;2023-07-02T05:38:00;94013.97;;;21.07;62.43
29197;BME280;62796;42.654;23.316;2023-07-02T05:40:25;94012.44;;;21.06;62.29
29197;BME280;62796;42.654;23.316;2023-07-02T05:42:51;94014.34;;;21.04;62.26
29197;BME280;62796;42.654;23.316;2023-07-02T05:45:16;94012.84;;;21.10;62.24
29197;BME280;62796;42.654;23.316;2023-07-02T05:47:42;94019.25;;;21.11;62.63
29197;BME280;62796;42.654;23.316;2023-07-02T05:50:07;94015.84;;;21.12;62.59
29197;BME280;62796;42.654;23.316;2023-07-02T05:52:33;94019.78;;;21.09;62.69
29197;BME280;62796;42.654;23.316;2023-07-02T05:54:58;94030.69;;;21.05;63.17
29197;BME280;62796;42.654;23.316;2023-07-02T05:57:24;94027.31;;;21.14;62.17
29197;BME280;62796;42.654;23.316;2023-07-02T05:59:49;94023.38;;;21.17;62.23
29197;BME280;62796;42.654;23.316;2023-07-02T06:02:14;94025.22;;;21.22;62.20
29197;BME280;62796;42.654;23.316;2023-07-02T06:04:40;94022.22;;;21.20;62.60
29197;BME280;62796;42.654;23.316;2023-07-02T06:07:05;94015.03;;;21.27;62.25
29197;BME280;62796;42.654;23.316;2023-07-02T06:09:31;94012.06;;;21.32;61.81
29197;BME280;62796;42.654;23.316;2023-07-02T06:11:57;94009.41;;;21.34;61.40
29197;BME280;62796;42.654;23.316;2023-07-02T06:14:23;94009.50;;;21.51;60.52
29197;BME280;62796;42.654;23.316;2023-07-02T06:16:51;93998.94;;;21.60;59.27
29197;BME280;62796;42.654;23.316;2023-07-02T06:19:17;93998.00;;;21.65;58.82
29197;BME280;62796;42.654;23.316;2023-07-02T06:21:43;94001.69;;;21.75;58.51
29197;BME280;62796;42.654;23.316;2023-07-02T06:24:08;94003.56;;;21.80;58.30
29197;BME280;62796;42.654;23.316;2023-07-02T06:26:33;94000.28;;;21.59;57.98
29197;BME280;62796;42.654;23.316;2023-07-02T06:28:59;94000.31;;;21.51;58.31
29197;BME280;62796;42.654;23.316;2023-07-02T06:31:24;94002.56;;;21.52;58.96
29197;BME280;62796;42.654;23.316;2023-07-02T06:33:50;93993.97;;;21.43;58.82
29197;BME280;62796;42.654;23.316;2023-07-02T06:36:15;93995.06;;;21.47;58.85
29197;BME280;62796;42.654;23.316;2023-07-02T06:38:41;93989.41;;;21.55;58.77
29197;BME280;62796;42.654;23.316;2023-07-02T06:41:07;93993.06;;;21.73;58.51
29197;BME280;62796;42.654;23.316;2023-07-02T06:43:32;93994.28;;;21.87;58.33
29197;BME280;62796;42.654;23.316;2023-07-02T06:45:57;93994.47;;;21.96;58.46
29197;BME280;62796;42.654;23.316;2023-07-02T06:48:23;93999.59;;;22.15;58.15
29197;BME280;62796;42.654;23.316;2023-07-02T06:50:48;93996.72;;;22.23;58.11
29197;BME280;62796;42.654;23.316;2023-07-02T06:53:14;93986.66;;;22.37;57.15
29197;BME280;62796;42.654;23.316;2023-07-02T06:55:39;93984.41;;;22.35;57.66
29197;BME280;62796;42.654;23.316;2023-07-02T06:58:05;93988.84;;;22.46;57.17
29197;BME280;62796;42.654;23.316;2023-07-02T07:00:32;94002.28;;;22.55;56.54
29197;BME280;62796;42.654;23.316;2023-07-02T07:03:01;94000.72;;;22.61;56.53
29197;BME280;62796;42.654;23.316;2023-07-02T07:05:26;93999.72;;;22.74;55.98
29197;BME280;62796;42.654;23.316;2023-07-02T07:07:51;94002.38;;;22.89;55.27
29197;BME280;62796;42.654;23.316;2023-07-02T07:10:17;94003.47;;;22.94;55.12
29197;BME280;62796;42.654;23.316;2023-07-02T07:12:42;94006.06;;;22.99;54.38
29197;BME280;62796;42.654;23.316;2023-07-02T07:15:08;93998.25;;;23.07;54.04
29197;BME280;62796;42.654;23.316;2023-07-02T07:17:33;94003.66;;;23.13;53.82
29197;BME280;62796;42.654;23.316;2023-07-02T07:19:59;94003.91;;;23.25;52.99
29197;BME280;62796;42.654;23.316;2023-07-02T07:22:24;94010.63;;;23.29;52.87
29197;BME280;62796;42.654;23.316;2023-07-02T07:24:50;94011.47;;;23.39;52.06
29197;BME280;62796;42.654;23.316;2023-07-02T07:27:15;94010.31;;;23.42;51.54
29197;BME280;62796;42.654;23.316;2023-07-02T07:29:40;94008.16;;;23.50;50.91
29197;BME280;62796;42.654;23.316;2023-07-02T07:32:06;94001.66;;;23.57;51.07
29197;BME280;62796;42.654;23.316;2023-07-02T07:34:31;94000.47;;;23.60;51.25
29197;BME280;62796;42.654;23.316;2023-07-02T07:36:57;93987.25;;;23.63;51.02
29197;BME280;62796;42.654;23.316;2023-07-02T07:39:22;93982.88;;;23.52;51.00
29197;BME280;62796;42.654;23.316;2023-07-02T07:41:48;93991.00;;;23.65;50.50
29197;BME280;62796;42.654;23.316;2023-07-02T07:44:13;93991.66;;;23.74;51.20
29197;BME280;62796;42.654;23.316;2023-07-02T07:46:39;93983.28;;;23.93;50.31
29197;BME280;62796;42.654;23.316;2023-07-02T07:49:04;93996.06;;;24.11;49.86
29197;BME280;62796;42.654;23.316;2023-07-02T07:51:29;93995.72;;;24.34;49.60
29197;BME280;62796;42.654;23.316;2023-07-02T07:53:55;93997.41;;;24.46;49.26
29197;BME280;62796;42.654;23.316;2023-07-02T07:56:20;93990.63;;;24.68;47.86
29197;BME280;62796;42.654;23.316;2023-07-02T07:58:46;93996.16;;;24.76;48.10
29197;BME280;62796;42.654;23.316;2023-07-02T08:01:11;94001.91;;;24.95;47.38
29197;BME280;62796;42.654;23.316;2023-07-02T08:03:39;94000.59;;;25.25;45.93
29197;BME280;62796;42.654;23.316;2023-07-02T08:06:05;94008.09;;;25.49;44.70
29197;BME280;62796;42.654;23.316;2023-07-02T08:08:30;93997.06;;;25.53;43.96
29197;BME280;62796;42.654;23.316;2023-07-02T08:10:56;94006.16;;;25.71;44.58
29197;BME280;62796;42.654;23.316;2023-07-02T08:13:21;93994.47;;;25.86;44.79
29197;BME280;62796;42.654;23.316;2023-07-02T08:15:47;94001.75;;;25.99;44.51
29197;BME280;62796;42.654;23.316;2023-07-02T08:18:13;93997.84;;;26.23;44.68
29197;BME280;62796;42.654;23.316;2023-07-02T08:20:38;94001.94;;;26.51;43.44
29197;BME280;62796;42.654;23.316;2023-07-02T08:23:04;94000.13;;;26.55;43.48
29197;BME280;62796;42.654;23.316;2023-07-02T08:25:29;94005.16;;;26.66;42.78
29197;BME280;62796;42.654;23.316;2023-07-02T08:27:55;94005.72;;;26.74;41.36
29197;BME280;62796;42.654;23.316;2023-07-02T08:30:21;94009.38;;;26.96;41.32
29197;BME280;62796;42.654;23.316;2023-07-02T08:32:46;94000.00;;;27.15;41.27
29197;BME280;62796;42.654;23.316;2023-07-02T08:35:12;93979.59;;;27.18;41.20
29197;BME280;62796;42.654;23.316;2023-07-02T08:37:37;93990.50;;;27.22;41.10
29197;BME280;62796;42.654;23.316;2023-07-02T08:40:03;93992.94;;;27.37;40.03
29197;BME280;62796;42.654;23.316;2023-07-02T08:42:32;93999.66;;;27.63;39.54
29197;BME280;62796;42.654;23.316;2023-07-02T08:44:59;93990.88;;;27.70;39.61
29197;BME280;62796;42.654;23.316;2023-07-02T08:47:25;93998.72;;;27.81;39.71
29197;BME280;62796;42.654;23.316;2023-07-02T08:49:50;93990.84;;;27.91;39.08
29197;BME280;62796;42.654;23.316;2023-07-02T08:52:16;93995.38;;;28.06;39.34
29197;BME280;62796;42.654;23.316;2023-07-02T08:54:41;93998.91;;;28.28;39.37
29197;BME280;62796;42.654;23.316;2023-07-02T08:57:09;93993.94;;;28.28;40.01
29197;BME280;62796;42.654;23.316;2023-07-02T08:59:35;93981.56;;;28.35;38.91
29197;BME280;62796;42.654;23.316;2023-07-02T09:02:01;93991.81;;;28.29;39.27
29197;BME280;62796;42.654;23.316;2023-07-02T09:04:27;93990.94;;;28.15;39.22
29197;BME280;62796;42.654;23.316;2023-07-02T09:07:07;93986.88;;;27.96;39.66
29197;BME280;62796;42.654;23.316;2023-07-02T09:09:33;93988.66;;;28.01;40.07
29197;BME280;62796;42.654;23.316;2023-07-02T09:12:09;93990.94;;;28.26;39.37
29197;BME280;62796;42.654;23.316;2023-07-02T09:14:35;93989.97;;;28.33;39.53
29197;BME280;62796;42.654;23.316;2023-07-02T09:17:05;93985.41;;;28.40;39.46
29197;BME280;62796;42.654;23.316;2023-07-02T09:19:31;93983.94;;;28.50;38.34
29197;BME280;62796;42.654;23.316;2023-07-02T09:21:58;93980.22;;;28.60;37.60
29197;BME280;62796;42.654;23.316;2023-07-02T09:24:29;93983.09;;;28.71;37.94
29197;BME280;62796;42.654;23.316;2023-07-02T09:26:59;93978.41;;;28.87;37.26
29197;BME280;62796;42.654;23.316;2023-07-02T09:29:27;93968.47;;;28.88;37.39
29197;BME280;62796;42.654;23.316;2023-07-02T09:31:58;93973.16;;;28.95;37.39
29197;BME280;62796;42.654;23.316;2023-07-02T09:34:28;93976.13;;;28.97;36.75
29197;BME280;62796;42.654;23.316;2023-07-02T09:36:54;93971.47;;;28.79;36.99
29197;BME280;62796;42.654;23.316;2023-07-02T09:39:26;93976.75;;;29.07;36.52
29197;BME280;62796;42.654;23.316;2023-07-02T09:41:52;93972.16;;;29.26;36.43
29197;BME280;62796;42.654;23.316;2023-07-02T09:44:18;93975.09;;;29.39;36.41
29197;BME280;62796;42.654;23.316;2023-07-02T09:46:50;93969.25;;;29.49;35.67
29197;BME280;62796;42.654;23.316;2023-07-02T09:49:17;93963.72;;;29.28;36.56
29197;BME280;62796;42.654;23.316;2023-07-02T09:51:45;93972.34;;;29.53;36.15
29197;BME280;62796;42.654;23.316;2023-07-02T09:54:11;93973.50;;;29.73;36.23
29197;BME280;62796;42.654;23.316;2023-07-02T09:56:37;93961.44;;;29.86;36.23
29197;BME280;62796;42.654;23.316;2023-07-02T09:59:03;93966.03;;;29.43;36.89
29197;BME280;62796;42.654;23.316;2023-07-02T10:01:28;93966.53;;;29.76;36.77
29197;BME280;62796;42.654;23.316;2023-07-02T10:03:54;93962.50;;;29.93;35.57
29197;BME280;62796;42.654;23.316;2023-07-02T10:06:19;93964.34;;;29.63;36.78
29197;BME280;62796;42.654;23.316;2023-07-02T10:08:54;93957.31;;;29.89;36.52
29197;BME280;62796;42.654;23.316;2023-07-02T10:11:20;93963.41;;;30.09;35.91
29197;BME280;62796;42.654;23.316;2023-07-02T10:13:46;93949.09;;;30.34;34.81
29197;BME280;62796;42.654;23.316;2023-07-02T10:16:22;93949.91;;;30.62;34.41
29197;BME280;62796;42.654;23.316;2023-07-02T10:18:47;93950.56;;;30.74;34.40
29197;BME280;62796;42.654;23.316;2023-07-02T10:21:16;93934.88;;;30.89;33.85
29197;BME280;62796;42.654;23.316;2023-07-02T10:23:42;93932.91;;;30.91;33.53
29197;BME280;62796;42.654;23.316;2023-07-02T10:26:16;93934.66;;;30.71;33.73
29197;BME280;62796;42.654;23.316;2023-07-02T10:28:42;93921.56;;;30.66;33.88
29197;BME280;62796;42.654;23.316;2023-07-02T10:31:19;93929.09;;;30.73;33.56
29197;BME280;62796;42.654;23.316;2023-07-02T10:33:44;93923.47;;;30.75;34.21
29197;BME280;62796;42.654;23.316;2023-07-02T10:36:20;93923.13;;;30.83;34.01
29197;BME280;62796;42.654;23.316;2023-07-02T10:38:46;93927.38;;;30.82;34.90
29197;BME280;62796;42.654;23.316;2023-07-02T10:41:12;93926.84;;;30.85;34.08
29197;BME280;62796;42.654;23.316;2023-07-02T10:43:37;93933.00;;;30.93;34.36
29197;BME280;62796;42.654;23.316;2023-07-02T10:46:03;93928.88;;;30.96;33.61
29197;BME280;62796;42.654;23.316;2023-07-02T10:48:30;93926.31;;;31.16;32.16
29197;BME280;62796;42.654;23.316;2023-07-02T10:50:56;93923.09;;;31.37;31.51
29197;BME280;62796;42.654;23.316;2023-07-02T10:53:21;93926.06;;;31.53;30.94
29197;BME280;62796;42.654;23.316;2023-07-02T10:55:53;93926.56;;;31.63;32.08
29197;BME280;62796;42.654;23.316;2023-07-02T10:58:20;93915.66;;;31.03;32.23
29197;BME280;62796;42.654;23.316;2023-07-02T11:00:50;93907.69;;;30.60;32.11
29197;BME280;62796;42.654;23.316;2023-07-02T11:03:26;93916.44;;;30.51;32.38
29197;BME280;62796;42.654;23.316;2023-07-02T11:05:52;93905.25;;;30.55;31.70
29197;BME280;62796;42.654;23.316;2023-07-02T11:08:18;93907.66;;;30.47;32.78
29197;BME280;62796;42.654;23.316;2023-07-02T11:10:46;93912.66;;;30.60;32.79
29197;BME280;62796;42.654;23.316;2023-07-02T11:15:37;93903.91;;;30.97;31.64
29197;BME280;62796;42.654;23.316;2023-07-02T11:18:12;93910.38;;;30.97;31.59
29197;BME280;62796;42.654;23.316;2023-07-02T11:20:39;93911.06;;;31.11;31.65
29197;BME280;62796;42.654;23.316;2023-07-02T11:23:16;93902.25;;;31.35;31.54
29197;BME280;62796;42.654;23.316;2023-07-02T11:25:41;93904.97;;;31.60;30.84
29197;BME280;62796;42.654;23.316;2023-07-02T11:28:06;93907.84;;;31.75;30.49
29197;BME280;62796;42.654;23.316;2023-07-02T11:30:32;93911.84;;;31.84;29.57
29197;BME280;62796;42.654;23.316;2023-07-02T11:32:58;93907.50;;;31.40;30.19
29197;BME280;62796;42.654;23.316;2023-07-02T11:35:34;93912.88;;;30.64;31.43
29197;BME280;62796;42.654;23.316;2023-07-02T11:38:00;93921.97;;;30.88;32.24
29197;BME280;62796;42.654;23.316;2023-07-02T11:40:25;93914.91;;;30.61;33.69
29197;BME280;62796;42.654;23.316;2023-07-02T11:42:51;93908.78;;;29.89;35.04
29197;BME280;62796;42.654;23.316;2023-07-02T11:45:16;93912.16;;;29.24;35.94
29197;BME280;62796;42.654;23.316;2023-07-02T11:47:42;93912.22;;;28.77;36.85
29197;BME280;62796;42.654;23.316;2023-07-02T11:50:07;93919.28;;;28.88;36.41
29197;BME280;62796;42.654;23.316;2023-07-02T11:52:33;93913.41;;;28.97;36.31
29197;BME280;62796;42.654;23.316;2023-07-02T11:54:58;93930.97;;;29.29;36.16
29197;BME280;62796;42.654;23.316;2023-07-02T11:57:24;93930.25;;;29.17;34.06
29197;BME280;62796;42.654;23.316;2023-07-02T11:59:49;93932.28;;;28.91;33.96
29197;BME280;62796;42.654;23.316;2023-07-02T12:02:15;93932.03;;;28.64;33.63
29197;BME280;62796;42.654;23.316;2023-07-02T12:04:42;93927.06;;;28.52;34.04
29197;BME280;62796;42.654;23.316;2023-07-02T12:07:07;93935.00;;;28.54;33.34
29197;BME280;62796;42.654;23.316;2023-07-02T12:09:32;93940.34;;;28.48;34.08
29197;BME280;62796;42.654;23.316;2023-07-02T12:11:58;93940.72;;;28.31;34.27
29197;BME280;62796;42.654;23.316;2023-07-02T12:14:23;93942.31;;;28.34;34.77
29197;BME280;62796;42.654;23.316;2023-07-02T12:16:48;93939.09;;;28.28;35.14
29197;BME280;62796;42.654;23.316;2023-07-02T12:19:14;93946.88;;;28.16;35.76
29197;BME280;62796;42.654;23.316;2023-07-02T12:21:39;93951.28;;;27.95;36.63
29197;BME280;62796;42.654;23.316;2023-07-02T12:24:05;93954.09;;;27.30;41.51
29197;BME280;62796;42.654;23.316;2023-07-02T12:26:35;93955.56;;;27.10;43.96
29197;BME280;62796;42.654;23.316;2023-07-02T12:29:00;93945.47;;;26.76;46.07
29197;BME280;62796;42.654;23.316;2023-07-02T12:31:26;93958.97;;;26.66;46.98
29197;BME280;62796;42.654;23.316;2023-07-02T12:33:51;93943.59;;;26.59;48.70
29197;BME280;62796;42.654;23.316;2023-07-02T12:36:16;93936.50;;;25.99;48.46
29197;BME280;62796;42.654;23.316;2023-07-02T12:38:42;93941.16;;;25.84;49.63
29197;BME280;62796;42.654;23.316;2023-07-02T12:41:07;93941.66;;;25.33;51.28
29197;BME280;62796;42.654;23.316;2023-07-02T12:43:33;93943.78;;;25.33;50.59
29197;BME280;62796;42.654;23.316;2023-07-02T12:45:58;93937.78;;;25.38;48.80
29197;BME280;62796;42.654;23.316;2023-07-02T12:48:23;93934.38;;;25.49;51.43
29197;BME280;62796;42.654;23.316;2023-07-02T12:50:56;93930.91;;;25.60;52.19